Time;durP1;ratioP1;P1;durP2;ratioP2;P2;SDS_P1;SDS_P2;PMS_P1;PMS_P2;Temp;Humidity;BMP_temperature;BMP_pressure;BME280_temperature;BME280_humidity;BME280_pressure;Samples;Min_cycle;Max_cycle;Signal;HPM_P1;HPM_P2
2022/08/06 00:00:30;;;;;;;1.92;0.60;;;14.20;99.90;;;;;;5015238;28;20252;-89
2022/08/06 00:02:55;;;;;;;2.92;0.60;;;14.20;99.90;;;;;;5013552;28;20199;-89
2022/08/06 00:05:22;;;;;;;1.48;0.60;;;14.20;99.90;;;;;;5022549;28;20236;-93
2022/08/06 00:07:48;;;;;;;1.55;0.60;;;14.20;99.90;;;;;;5011902;28;20218;-89
2022/08/06 00:10:18;;;;;;;1.25;0.60;;;14.20;99.90;;;;;;5012526;28;20659;-89
2022/08/06 00:12:45;;;;;;;2.78;0.80;;;14.20;99.90;;;;;;5017473;28;20187;-89
2022/08/06 00:15:11;;;;;;;2.55;0.80;;;14.10;99.90;;;;;;5012339;28;20183;-88
2022/08/06 00:17:38;;;;;;;3.05;0.70;;;14.10;99.90;;;;;;5012026;28;20211;-91
2022/08/06 00:20:06;;;;;;;5.82;0.82;;;14.00;99.90;;;;;;5012217;28;20203;-88
2022/08/06 00:22:32;;;;;;;1.10;0.52;;;14.00;99.90;;;;;;5001507;28;20285;-90
2022/08/06 00:24:58;;;;;;;0.73;0.60;;;14.00;99.90;;;;;;5027796;28;20322;-89
2022/08/06 00:27:24;;;;;;;2.53;0.60;;;14.00;99.90;;;;;;5017395;28;20306;-89
2022/08/06 00:29:49;;;;;;;0.98;0.60;;;13.90;99.90;;;;;;5018924;28;20637;-89
2022/08/06 00:32:16;;;;;;;2.55;0.90;;;14.00;99.90;;;;;;5030087;28;20179;-91
2022/08/06 00:34:42;;;;;;;1.90;0.63;;;14.00;99.90;;;;;;5015736;28;20546;-90
2022/08/06 00:37:08;;;;;;;1.45;0.60;;;13.90;99.90;;;;;;5015852;28;20219;-88
2022/08/06 00:39:33;;;;;;;1.83;0.70;;;13.90;99.90;;;;;;5011883;28;20187;-92
2022/08/06 00:41:59;;;;;;;2.92;0.95;;;13.90;99.90;;;;;;5017540;28;20286;-90
2022/08/06 00:44:25;;;;;;;1.02;0.63;;;13.90;99.90;;;;;;5011538;28;20635;-88
2022/08/06 00:46:51;;;;;;;2.15;0.60;;;13.80;99.90;;;;;;5011263;28;20199;-90
2022/08/06 00:49:17;;;;;;;0.85;0.55;;;13.80;99.90;;;;;;5011669;28;20233;-91
2022/08/06 00:51:43;;;;;;;1.92;0.70;;;13.80;99.90;;;;;;4997321;28;20662;-91
2022/08/06 00:54:09;;;;;;;4.00;0.77;;;13.80;99.90;;;;;;5017554;28;20677;-90
2022/08/06 00:56:35;;;;;;;1.15;0.60;;;13.70;99.90;;;;;;5015671;28;20701;-90
2022/08/06 00:59:01;;;;;;;0.93;0.50;;;13.70;99.90;;;;;;5014564;28;20650;-90
2022/08/06 01:01:27;;;;;;;3.33;0.80;;;13.70;99.90;;;;;;5023809;28;20202;-89
2022/08/06 01:03:53;;;;;;;2.55;0.80;;;13.70;99.90;;;;;;5012393;28;20674;-88
2022/08/06 01:06:20;;;;;;;1.27;0.82;;;13.70;99.90;;;;;;5011639;28;20195;-87
2022/08/06 01:08:45;;;;;;;1.95;0.63;;;13.60;99.90;;;;;;5003232;28;20176;-90
2022/08/06 01:11:12;;;;;;;1.15;0.70;;;13.60;99.90;;;;;;5030237;28;20186;-87
2022/08/06 01:13:38;;;;;;;2.05;0.75;;;13.60;99.90;;;;;;5013576;28;20187;-89
2022/08/06 01:16:37;;;;;;;1.85;0.70;;;13.70;99.90;;;;;;5028666;28;20664;-91
2022/08/06 01:19:24;;;;;;;3.47;0.88;;;13.60;99.90;;;;;;5010246;28;20674;-89
2022/08/06 01:22:21;;;;;;;1.77;0.70;;;13.60;99.90;;;;;;5018689;28;20233;-91
2022/08/06 01:25:11;;;;;;;1.05;0.70;;;13.50;99.90;;;;;;5021827;28;20322;-89
2022/08/06 01:28:16;;;;;;;1.25;0.80;;;13.50;99.90;;;;;;5010831;28;20210;-91
2022/08/06 01:30:50;;;;;;;1.30;0.80;;;13.40;99.90;;;;;;4990858;28;20186;-88
2022/08/06 01:33:31;;;;;;;3.80;0.98;;;13.40;99.90;;;;;;5003329;28;20559;-91
2022/08/06 01:36:03;;;;;;;1.25;0.70;;;13.40;99.90;;;;;;5010764;28;20678;-92
2022/08/06 01:38:37;;;;;;;2.15;0.80;;;13.30;99.90;;;;;;5021410;28;20316;-89
2022/08/06 01:41:07;;;;;;;2.15;0.70;;;13.30;99.90;;;;;;5009786;28;20183;-88
2022/08/06 01:43:35;;;;;;;4.90;1.00;;;13.30;99.90;;;;;;5017788;28;20187;-89
2022/08/06 01:46:03;;;;;;;1.65;0.70;;;13.30;99.90;;;;;;5010504;28;20219;-89
2022/08/06 01:48:32;;;;;;;2.13;0.80;;;13.30;99.90;;;;;;5006269;28;20535;-89
2022/08/06 01:51:03;;;;;;;0.98;0.70;;;13.30;99.90;;;;;;5012276;28;20552;-88
2022/08/06 01:53:33;;;;;;;1.42;0.85;;;13.30;99.90;;;;;;5021752;28;20194;-91
2022/08/06 01:56:01;;;;;;;1.02;0.70;;;13.30;99.90;;;;;;5005832;28;20229;-93
2022/08/06 01:58:31;;;;;;;1.10;0.70;;;13.30;99.90;;;;;;5017525;28;20183;-88
2022/08/06 02:01:03;;;;;;;1.20;0.80;;;13.30;99.90;;;;;;5023871;28;20574;-88
2022/08/06 02:03:35;;;;;;;2.72;0.90;;;13.30;99.90;;;;;;5010799;28;20190;-90
2022/08/06 02:06:02;;;;;;;2.25;0.63;;;13.20;99.90;;;;;;5010410;28;20230;-90
2022/08/06 02:08:33;;;;;;;3.53;0.77;;;13.20;99.90;;;;;;5018735;28;20229;-88
2022/08/06 02:11:03;;;;;;;1.75;0.80;;;13.10;99.90;;;;;;5014536;28;20725;-90
2022/08/06 02:13:34;;;;;;;0.98;0.70;;;13.20;99.90;;;;;;5020621;28;20277;-91
2022/08/06 02:16:03;;;;;;;1.55;0.70;;;13.20;99.90;;;;;;5030168;28;20194;-89
2022/08/06 02:18:39;;;;;;;3.35;0.82;;;13.10;99.90;;;;;;5010091;28;20187;-88
2022/08/06 02:23:43;;;;;;;0.77;0.60;;;13.10;99.90;;;;;;5030020;28;20163;-89
2022/08/06 02:26:11;;;;;;;1.42;0.70;;;13.10;99.90;;;;;;5012989;28;20226;-88
2022/08/06 02:28:39;;;;;;;2.17;0.60;;;13.00;99.90;;;;;;5016019;28;20179;-88
2022/08/06 02:31:05;;;;;;;2.00;0.80;;;13.00;99.90;;;;;;5014419;28;20179;-89
2022/08/06 02:33:31;;;;;;;0.95;0.75;;;13.00;99.90;;;;;;5015406;28;20245;-89
2022/08/06 02:35:57;;;;;;;3.08;0.80;;;13.00;99.90;;;;;;5027050;28;20580;-89
2022/08/06 02:38:28;;;;;;;0.70;0.55;;;13.00;99.90;;;;;;5030712;28;20280;-91
2022/08/06 02:41:01;;;;;;;1.60;0.70;;;13.00;99.90;;;;;;5025204;28;20201;-88
2022/08/06 02:43:39;;;;;;;2.00;0.60;;;13.00;99.90;;;;;;5017301;28;20282;-90
2022/08/06 02:46:16;;;;;;;2.88;0.85;;;12.90;99.90;;;;;;5020681;28;20203;-88
2022/08/06 02:48:58;;;;;;;2.53;0.80;;;12.90;99.90;;;;;;5013956;28;20230;-90
2022/08/06 02:51:33;;;;;;;1.25;0.73;;;12.80;99.90;;;;;;5013930;28;20191;-90
2022/08/06 02:54:19;;;;;;;3.03;0.70;;;12.80;99.90;;;;;;5014098;28;20642;-92
2022/08/06 02:56:47;;;;;;;7.30;1.10;;;12.80;99.90;;;;;;5025484;28;20300;-90
2022/08/06 02:59:23;;;;;;;1.55;0.80;;;12.80;99.90;;;;;;5026453;28;20183;-90
2022/08/06 03:01:54;;;;;;;1.50;0.70;;;12.70;99.90;;;;;;5019203;28;20194;-90
2022/08/06 03:04:23;;;;;;;0.88;0.70;;;12.80;99.90;;;;;;5029870;28;20201;-89
2022/08/06 03:06:50;;;;;;;2.55;0.60;;;12.70;99.90;;;;;;5013291;28;20280;-90
2022/08/06 03:09:20;;;;;;;1.08;0.70;;;12.70;99.90;;;;;;5017405;28;20191;-89
2022/08/06 03:11:48;;;;;;;2.60;0.82;;;12.70;99.90;;;;;;5017691;28;20707;-89
2022/08/06 03:14:16;;;;;;;2.15;0.70;;;12.70;99.90;;;;;;5017004;28;20195;-89
2022/08/06 03:16:43;;;;;;;2.55;0.80;;;12.60;99.90;;;;;;5013362;28;20211;-88
2022/08/06 03:19:09;;;;;;;0.88;0.63;;;12.60;99.90;;;;;;5012978;28;20193;-89
2022/08/06 03:21:36;;;;;;;1.17;0.77;;;12.60;99.90;;;;;;5032789;28;20191;-88
2022/08/06 03:24:03;;;;;;;1.73;0.82;;;12.60;99.90;;;;;;5015894;28;20191;-92
2022/08/06 03:26:31;;;;;;;2.15;1.00;;;12.60;99.90;;;;;;5012901;28;20215;-89
2022/08/06 03:28:59;;;;;;;1.83;0.90;;;12.50;99.90;;;;;;5013110;28;20226;-90
2022/08/06 03:31:26;;;;;;;2.10;0.80;;;12.50;99.90;;;;;;5022886;28;20237;-93
2022/08/06 03:33:53;;;;;;;0.80;0.80;;;12.50;99.90;;;;;;5012750;28;20191;-90
2022/08/06 03:36:21;;;;;;;1.75;0.90;;;12.50;99.90;;;;;;5012573;28;20190;-89
2022/08/06 03:38:58;;;;;;;1.25;0.82;;;12.50;99.90;;;;;;5014709;28;20431;-90
2022/08/06 03:41:25;;;;;;;0.85;0.70;;;12.50;99.90;;;;;;5032311;28;20182;-91
2022/08/06 03:43:52;;;;;;;1.55;0.85;;;12.50;99.90;;;;;;5026014;28;20202;-90
2022/08/06 03:46:30;;;;;;;2.67;0.80;;;12.40;99.90;;;;;;5020587;28;20694;-89
2022/08/06 03:49:00;;;;;;;2.20;0.90;;;12.40;99.90;;;;;;5016711;28;20563;-88
2022/08/06 03:51:28;;;;;;;1.85;0.70;;;12.40;99.90;;;;;;5029418;28;20195;-89
2022/08/06 03:53:56;;;;;;;2.85;0.82;;;12.40;99.90;;;;;;5025196;28;20630;-90
2022/08/06 03:56:26;;;;;;;0.70;0.70;;;12.40;99.90;;;;;;5012599;28;20745;-89
2022/08/06 03:58:54;;;;;;;0.85;0.70;;;12.40;99.90;;;;;;5009551;28;20214;-88
2022/08/06 04:01:26;;;;;;;1.73;0.85;;;12.30;99.90;;;;;;5032467;28;20185;-88
2022/08/06 04:03:52;;;;;;;0.95;0.70;;;12.40;99.90;;;;;;5015370;28;20214;-90
2022/08/06 04:06:20;;;;;;;4.72;0.90;;;12.30;99.90;;;;;;5021647;28;20297;-89
2022/08/06 04:08:47;;;;;;;1.45;0.90;;;12.30;99.90;;;;;;5017550;28;20647;-88
2022/08/06 04:11:15;;;;;;;6.10;0.90;;;12.30;99.90;;;;;;5018970;28;20613;-91
2022/08/06 04:13:44;;;;;;;2.15;1.00;;;12.40;99.90;;;;;;5017347;28;20615;-88
2022/08/06 04:16:13;;;;;;;1.73;0.63;;;12.30;99.90;;;;;;5029576;28;20646;-89
2022/08/06 04:18:43;;;;;;;2.75;0.90;;;12.40;99.90;;;;;;5015171;28;20198;-90
2022/08/06 04:21:15;;;;;;;2.10;0.70;;;12.40;99.90;;;;;;5018752;28;20191;-91
2022/08/06 04:23:41;;;;;;;2.20;1.20;;;12.40;99.90;;;;;;5012129;28;20183;-88
2022/08/06 04:26:12;;;;;;;0.82;0.65;;;12.40;99.90;;;;;;5019052;28;20269;-89
2022/08/06 04:28:42;;;;;;;1.30;0.80;;;12.50;99.90;;;;;;5019756;28;20179;-90
2022/08/06 04:31:09;;;;;;;0.98;0.70;;;12.40;99.90;;;;;;5011975;28;20274;-88
2022/08/06 04:33:39;;;;;;;1.38;0.88;;;12.40;99.90;;;;;;5012846;28;20237;-92
2022/08/06 04:36:07;;;;;;;2.55;0.93;;;12.40;99.90;;;;;;5010981;28;20195;-89
2022/08/06 04:38:33;;;;;;;1.48;0.80;;;12.50;99.90;;;;;;5011919;28;20222;-87
2022/08/06 04:41:01;;;;;;;2.58;0.90;;;12.50;99.90;;;;;;5011174;28;20560;-90
2022/08/06 04:43:27;;;;;;;3.40;0.88;;;12.50;99.90;;;;;;5016686;28;20708;-91
2022/08/06 04:45:54;;;;;;;1.52;0.80;;;12.60;99.90;;;;;;5023390;28;20219;-90
2022/08/06 04:48:24;;;;;;;2.60;0.77;;;12.60;99.90;;;;;;4999520;28;20241;-88
2022/08/06 04:50:50;;;;;;;3.50;0.93;;;12.60;99.90;;;;;;5027833;28;20178;-89
2022/08/06 04:53:17;;;;;;;1.38;0.90;;;12.60;99.90;;;;;;5014861;28;20187;-89
2022/08/06 04:55:44;;;;;;;2.38;1.10;;;12.60;99.90;;;;;;5011072;28;20270;-89
2022/08/06 04:58:13;;;;;;;3.45;0.98;;;12.70;99.90;;;;;;5019253;28;20560;-88
2022/08/06 05:00:42;;;;;;;3.33;1.10;;;12.70;99.90;;;;;;5011024;28;20194;-88
2022/08/06 05:03:08;;;;;;;1.80;0.90;;;12.80;99.90;;;;;;5012299;28;20194;-87
2022/08/06 05:05:54;;;;;;;0.85;0.77;;;12.90;99.90;;;;;;5010848;28;20289;-91
2022/08/06 05:08:22;;;;;;;0.60;0.60;;;12.90;99.90;;;;;;5010433;28;20667;-91
2022/08/06 05:10:56;;;;;;;2.53;0.70;;;12.90;99.90;;;;;;5011080;28;20668;-87
2022/08/06 05:13:26;;;;;;;2.88;0.90;;;13.00;99.90;;;;;;5018469;28;20638;-91
2022/08/06 05:16:03;;;;;;;3.28;1.00;;;13.00;99.90;;;;;;5013585;28;20194;-88
2022/08/06 05:19:01;;;;;;;1.75;0.80;;;13.00;99.90;;;;;;5015991;28;20186;-88
2022/08/06 05:21:35;;;;;;;2.90;0.88;;;13.10;99.90;;;;;;5020189;28;20548;-90
2022/08/06 05:24:03;;;;;;;1.48;0.70;;;13.10;99.90;;;;;;5021811;28;20544;-89
2022/08/06 05:26:29;;;;;;;2.40;1.13;;;13.10;99.90;;;;;;5014192;28;20241;-89
2022/08/06 05:28:55;;;;;;;2.78;0.70;;;13.10;99.90;;;;;;5022248;28;20689;-90
2022/08/06 05:31:36;;;;;;;1.30;0.60;;;13.10;99.90;;;;;;5010411;28;20187;-89
2022/08/06 05:34:08;;;;;;;2.58;0.70;;;13.20;99.90;;;;;;5020452;28;20270;-89
2022/08/06 05:36:34;;;;;;;2.67;0.90;;;13.20;99.90;;;;;;5015917;28;20234;-93
2022/08/06 05:39:00;;;;;;;2.45;0.80;;;13.20;99.90;;;;;;5018975;28;20745;-91
2022/08/06 05:41:28;;;;;;;1.30;0.70;;;13.30;99.90;;;;;;5010596;28;20286;-88
2022/08/06 05:43:54;;;;;;;1.80;0.80;;;13.30;99.90;;;;;;5010345;28;20300;-90
2022/08/06 05:46:23;;;;;;;2.30;0.88;;;13.30;99.90;;;;;;5020150;28;20239;-89
2022/08/06 05:49:09;;;;;;;2.40;0.80;;;13.30;99.90;;;;;;5007824;28;20273;-91
2022/08/06 05:51:48;;;;;;;2.95;1.00;;;13.30;99.90;;;;;;5008063;28;20624;-89
2022/08/06 05:54:27;;;;;;;1.85;0.80;;;13.40;99.90;;;;;;5015806;28;20189;-88
2022/08/06 05:57:03;;;;;;;2.30;0.88;;;13.40;99.90;;;;;;5013705;28;20751;-87
2022/08/06 05:59:31;;;;;;;2.53;0.70;;;13.50;99.90;;;;;;5002582;28;20195;-89
2022/08/06 06:01:57;;;;;;;1.23;0.70;;;13.50;99.90;;;;;;5009311;28;20190;-88
2022/08/06 06:04:25;;;;;;;0.98;0.80;;;13.50;99.90;;;;;;5016779;28;20195;-89
2022/08/06 06:06:51;;;;;;;2.08;0.80;;;13.60;99.90;;;;;;5013757;28;20337;-88
2022/08/06 06:09:17;;;;;;;1.40;0.70;;;13.60;99.90;;;;;;5016062;28;20745;-89
2022/08/06 06:11:43;;;;;;;2.00;0.80;;;13.70;99.90;;;;;;5015569;28;20314;-90
2022/08/06 06:14:37;;;;;;;1.30;0.93;;;13.70;99.90;;;;;;5024667;28;20174;-90
2022/08/06 06:17:09;;;;;;;1.55;0.70;;;13.80;99.90;;;;;;5022243;28;20698;-89
2022/08/06 06:20:04;;;;;;;1.52;0.80;;;13.80;99.90;;;;;;5031472;28;20236;-89
2022/08/06 06:22:56;;;;;;;4.03;1.02;;;13.90;99.90;;;;;;5001144;28;20186;-92
2022/08/06 06:25:29;;;;;;;3.42;0.88;;;13.90;99.90;;;;;;5025424;28;20218;-87
2022/08/06 06:28:04;;;;;;;3.65;1.05;;;13.90;99.90;;;;;;5020787;28;20336;-88
2022/08/06 06:30:44;;;;;;;3.55;1.02;;;14.00;99.90;;;;;;5025593;28;20739;-88
2022/08/06 06:33:24;;;;;;;2.15;0.65;;;14.10;99.90;;;;;;5031856;28;20186;-90
2022/08/06 06:36:10;;;;;;;4.55;0.80;;;14.20;99.90;;;;;;5020611;28;20277;-88
2022/08/06 06:39:14;;;;;;;2.40;0.90;;;14.30;99.90;;;;;;5022187;28;20231;-89
2022/08/06 06:41:49;;;;;;;1.45;0.80;;;14.30;99.90;;;;;;5012883;28;20229;-88
2022/08/06 06:45:01;;;;;;;2.78;0.98;;;14.40;99.90;;;;;;5012846;28;20204;-86
2022/08/06 06:47:39;;;;;;;1.00;0.68;;;14.40;99.90;;;;;;5006431;28;20670;-88
2022/08/06 06:50:11;;;;;;;1.08;0.70;;;14.50;99.90;;;;;;5014585;28;20182;-88
2022/08/06 06:52:43;;;;;;;0.85;0.60;;;14.60;99.90;;;;;;5015270;28;20195;-88
2022/08/06 06:55:32;;;;;;;5.28;1.02;;;14.60;99.90;;;;;;5012256;28;20202;-87
2022/08/06 06:58:21;;;;;;;2.13;0.70;;;14.80;99.90;;;;;;5015406;28;20302;-88
2022/08/06 07:00:52;;;;;;;1.30;0.50;;;14.90;99.90;;;;;;5012149;28;20797;-90
2022/08/06 07:03:20;;;;;;;2.22;0.80;;;14.90;99.90;;;;;;5023163;28;20211;-87
2022/08/06 07:05:48;;;;;;;3.92;0.90;;;15.00;99.90;;;;;;5007423;28;20265;-88
2022/08/06 07:08:18;;;;;;;3.22;0.90;;;15.10;99.90;;;;;;5029562;28;20207;-89
2022/08/06 07:10:46;;;;;;;1.95;0.70;;;15.20;99.90;;;;;;5014117;28;20183;-87
2022/08/06 07:13:14;;;;;;;1.55;0.60;;;15.30;99.90;;;;;;5022737;28;20197;-89
2022/08/06 07:15:42;;;;;;;1.77;0.90;;;15.40;99.90;;;;;;5017294;28;20188;-88
2022/08/06 07:18:10;;;;;;;1.67;0.75;;;15.40;99.90;;;;;;5019132;28;20212;-87
2022/08/06 07:20:36;;;;;;;4.43;0.70;;;15.50;99.90;;;;;;5016947;28;20190;-87
2022/08/06 07:23:08;;;;;;;2.85;0.60;;;15.60;99.90;;;;;;5025622;28;20671;-89
2022/08/06 07:25:39;;;;;;;2.05;0.50;;;15.80;99.90;;;;;;5005805;28;20238;-89
2022/08/06 07:28:06;;;;;;;2.20;0.60;;;15.90;99.90;;;;;;5014129;28;20238;-90
2022/08/06 07:30:33;;;;;;;0.75;0.50;;;16.10;99.90;;;;;;5013069;28;20183;-90
2022/08/06 07:32:59;;;;;;;2.55;0.60;;;16.20;99.90;;;;;;5014290;28;20179;-88
2022/08/06 07:35:25;;;;;;;1.70;0.70;;;16.30;99.90;;;;;;5013855;28;20187;-88
2022/08/06 07:38:01;;;;;;;1.25;0.70;;;16.60;99.90;;;;;;5023094;28;20307;-90
2022/08/06 07:40:30;;;;;;;2.35;0.65;;;16.70;99.90;;;;;;5027525;28;20194;-91
2022/08/06 07:43:13;;;;;;;3.88;0.60;;;16.80;99.90;;;;;;5017567;28;20221;-88
2022/08/06 07:45:39;;;;;;;2.95;0.50;;;16.80;99.90;;;;;;5017697;28;20269;-89
2022/08/06 07:48:09;;;;;;;1.88;0.68;;;16.90;99.90;;;;;;5026879;28;20211;-88
2022/08/06 07:50:36;;;;;;;2.70;0.50;;;17.10;99.90;;;;;;5032324;28;20285;-91
2022/08/06 07:53:03;;;;;;;1.90;0.60;;;17.30;99.90;;;;;;5013205;28;20214;-87
2022/08/06 07:55:29;;;;;;;0.95;0.40;;;17.30;99.90;;;;;;5023771;28;20225;-89
2022/08/06 07:57:59;;;;;;;1.40;0.40;;;17.30;99.90;;;;;;5011978;28;20297;-89
2022/08/06 08:00:27;;;;;;;2.03;0.50;;;17.30;99.90;;;;;;5016580;28;20187;-89
2022/08/06 08:08:25;;;;;;;4.43;0.65;;;17.40;99.90;;;;;;5025711;28;20229;-87
2022/08/06 08:10:53;;;;;;;2.10;0.75;;;17.60;99.90;;;;;;5024910;28;20210;-88
2022/08/06 08:13:21;;;;;;;1.92;0.38;;;17.50;99.90;;;;;;5003349;28;20278;-89
2022/08/06 08:15:48;;;;;;;2.15;0.50;;;17.40;99.90;;;;;;5006423;28;20238;-89
2022/08/06 08:18:14;;;;;;;1.52;0.50;;;17.40;99.90;;;;;;5011373;28;20583;-89
2022/08/06 08:20:42;;;;;;;6.75;0.50;;;17.70;99.90;;;;;;5011592;28;20677;-89
2022/08/06 08:23:11;;;;;;;5.00;0.80;;;17.90;99.90;;;;;;5028676;28;20194;-89
2022/08/06 08:25:38;;;;;;;0.70;0.50;;;17.90;99.90;;;;;;5023733;28;20211;-87
2022/08/06 08:28:05;;;;;;;1.67;0.60;;;18.10;99.40;;;;;;5022231;28;20214;-89
2022/08/06 08:30:33;;;;;;;0.85;0.40;;;18.30;98.90;;;;;;5031110;28;20194;-90
2022/08/06 08:32:59;;;;;;;1.25;0.60;;;18.50;98.60;;;;;;5021539;28;20282;-89
2022/08/06 08:35:24;;;;;;;3.33;0.50;;;18.50;98.70;;;;;;5016610;28;20278;-90
2022/08/06 08:37:50;;;;;;;2.15;0.50;;;18.60;97.70;;;;;;5013190;28;20645;-89
2022/08/06 08:40:16;;;;;;;1.80;0.60;;;18.60;97.80;;;;;;5020817;28;20190;-88
2022/08/06 08:42:53;;;;;;;2.58;0.52;;;18.70;98.00;;;;;;5015964;28;20556;-87
2022/08/06 08:45:20;;;;;;;3.95;0.93;;;19.00;97.70;;;;;;5015659;28;20207;-87
2022/08/06 08:47:50;;;;;;;1.33;0.50;;;19.20;97.50;;;;;;5030795;28;20529;-89
2022/08/06 08:50:23;;;;;;;1.55;0.55;;;19.30;97.70;;;;;;5030061;28;20236;-89
2022/08/06 08:52:51;;;;;;;1.67;0.55;;;19.10;98.00;;;;;;5013127;28;20190;-91
2022/08/06 08:55:22;;;;;;;3.03;0.90;;;18.90;96.70;;;;;;5021892;28;20222;-88
2022/08/06 08:57:51;;;;;;;1.65;1.08;;;18.50;97.00;;;;;;5009266;28;20207;-88
2022/08/06 09:00:17;;;;;;;1.05;0.50;;;18.10;97.30;;;;;;5010051;28;20625;-91
2022/08/06 09:02:44;;;;;;;1.85;0.50;;;17.80;97.90;;;;;;5010907;28;20191;-87
2022/08/06 09:05:10;;;;;;;1.42;0.57;;;17.60;98.90;;;;;;5010389;28;20625;-89
2022/08/06 09:07:37;;;;;;;1.30;0.52;;;17.80;99.00;;;;;;5007242;28;20207;-91
2022/08/06 09:10:08;;;;;;;1.13;0.57;;;18.10;99.30;;;;;;5010486;28;20690;-90
2022/08/06 09:12:34;;;;;;;2.33;0.50;;;18.50;98.20;;;;;;5008065;28;20184;-89
2022/08/06 09:15:00;;;;;;;1.20;0.40;;;18.80;96.20;;;;;;5021903;28;20191;-89
2022/08/06 09:17:28;;;;;;;0.52;0.30;;;19.00;95.60;;;;;;5010159;28;20215;-88
2022/08/06 09:19:54;;;;;;;0.77;0.40;;;19.10;95.40;;;;;;5025611;28;20186;-90
2022/08/06 09:22:19;;;;;;;0.82;0.40;;;18.80;95.40;;;;;;5026115;28;20646;-89
2022/08/06 09:24:45;;;;;;;1.13;0.40;;;18.50;95.60;;;;;;5006582;28;20187;-91
2022/08/06 09:27:14;;;;;;;1.40;0.40;;;18.30;96.80;;;;;;5009904;28;20215;-88
2022/08/06 09:29:53;;;;;;;3.47;0.90;;;18.30;97.10;;;;;;5014253;28;20244;-94
2022/08/06 09:32:42;;;;;;;0.70;0.50;;;18.50;94.40;;;;;;5030479;28;20185;-87
2022/08/06 09:35:30;;;;;;;0.90;0.50;;;18.80;94.30;;;;;;5010629;28;20671;-91
2022/08/06 09:38:02;;;;;;;3.28;0.40;;;19.10;96.00;;;;;;5009450;28;20296;-88
2022/08/06 09:40:28;;;;;;;3.50;0.60;;;19.40;95.30;;;;;;5024324;28;20194;-90
2022/08/06 09:42:54;;;;;;;12.20;1.15;;;19.60;93.90;;;;;;5016128;28;20706;-90
2022/08/06 09:45:22;;;;;;;1.70;0.60;;;19.70;93.20;;;;;;5028522;28;20238;-90
2022/08/06 09:48:00;;;;;;;1.38;0.40;;;19.90;93.30;;;;;;5011505;28;20235;-88
2022/08/06 09:50:41;;;;;;;2.85;0.60;;;20.00;93.30;;;;;;5010030;28;20610;-90
2022/08/06 09:53:07;;;;;;;0.82;0.40;;;20.30;94.00;;;;;;5018189;28;20203;-88
2022/08/06 09:55:33;;;;;;;1.95;0.52;;;20.40;93.30;;;;;;5017985;28;20658;-89
2022/08/06 09:57:59;;;;;;;0.90;0.40;;;20.50;93.20;;;;;;5001548;28;20214;-92
2022/08/06 10:00:28;;;;;;;1.52;0.57;;;20.60;92.60;;;;;;5012800;28;20532;-91
2022/08/06 10:02:58;;;;;;;1.15;0.45;;;20.60;92.00;;;;;;5008757;28;20711;-88
2022/08/06 10:05:25;;;;;;;0.65;0.30;;;20.50;91.90;;;;;;5012879;28;20213;-89
2022/08/06 10:08:12;;;;;;;0.40;0.30;;;20.60;91.40;;;;;;5019368;28;20682;-87
2022/08/06 10:10:40;;;;;;;1.75;0.55;;;20.60;89.80;;;;;;5004042;28;20186;-88
2022/08/06 10:13:26;;;;;;;2.50;0.40;;;20.60;91.70;;;;;;5003795;28;20187;-87
2022/08/06 10:15:57;;;;;;;1.70;0.40;;;20.70;90.90;;;;;;5017088;28;20191;-89
2022/08/06 10:18:35;;;;;;;4.13;0.68;;;20.50;90.60;;;;;;5017493;28;20694;-87
2022/08/06 10:21:09;;;;;;;1.45;0.30;;;20.30;91.10;;;;;;5029295;28;20186;-88
2022/08/06 10:23:39;;;;;;;1.05;0.40;;;20.20;90.20;;;;;;5006483;28;20654;-88
2022/08/06 10:26:11;;;;;;;0.85;0.30;;;20.40;92.70;;;;;;5018965;28;20213;-89
2022/08/06 10:28:39;;;;;;;0.63;0.30;;;20.60;93.20;;;;;;5009321;28;20559;-87
2022/08/06 10:31:09;;;;;;;2.10;0.60;;;20.90;92.20;;;;;;5009022;28;20198;-91
2022/08/06 10:34:21;;;;;;;2.40;0.40;;;21.00;90.60;;;;;;5005925;28;20184;-88
2022/08/06 10:36:55;;;;;;;0.70;0.40;;;20.70;90.60;;;;;;4997133;28;20742;-91
2022/08/06 10:39:25;;;;;;;1.77;0.50;;;20.30;91.00;;;;;;5016175;28;20667;-87
2022/08/06 10:41:56;;;;;;;0.30;0.20;;;20.50;91.80;;;;;;5010264;28;20274;-90
2022/08/06 10:44:22;;;;;;;1.92;0.60;;;20.70;91.00;;;;;;5015669;28;20180;-87
2022/08/06 10:46:51;;;;;;;1.35;0.70;;;20.90;90.40;;;;;;5015918;28;20234;-86
2022/08/06 10:49:20;;;;;;;1.30;0.40;;;20.90;90.80;;;;;;5012126;28;20191;-90
2022/08/06 10:51:52;;;;;;;1.73;0.45;;;20.60;90.20;;;;;;5020874;28;20201;-90
2022/08/06 10:54:18;;;;;;;0.70;0.30;;;20.30;90.50;;;;;;5016163;28;20175;-89
2022/08/06 10:56:46;;;;;;;1.83;0.52;;;20.10;91.10;;;;;;5012799;28;20624;-89
2022/08/06 10:59:17;;;;;;;1.20;0.50;;;20.30;89.40;;;;;;5012310;28;20321;-91
2022/08/06 11:02:16;;;;;;;0.80;0.40;;;20.50;90.40;;;;;;5012650;28;20175;-87
2022/08/06 11:05:01;;;;;;;0.93;0.32;;;20.90;90.00;;;;;;5012425;28;20713;-88
2022/08/06 11:07:44;;;;;;;1.02;0.40;;;21.00;87.10;;;;;;5016323;28;20570;-87
2022/08/06 11:10:22;;;;;;;2.55;0.43;;;21.10;85.30;;;;;;5014291;28;20183;-91
2022/08/06 11:12:57;;;;;;;1.25;0.40;;;21.10;85.60;;;;;;5011863;28;20175;-88
2022/08/06 11:15:24;;;;;;;1.05;0.40;;;21.20;89.80;;;;;;5018557;28;20232;-88
2022/08/06 11:17:54;;;;;;;0.88;0.30;;;21.30;88.10;;;;;;5016017;28;20225;-90
2022/08/06 11:20:32;;;;;;;2.08;0.30;;;21.50;88.90;;;;;;5024282;28;20198;-87
2022/08/06 11:23:11;;;;;;;1.00;0.43;;;21.80;88.40;;;;;;5022386;28;20187;-92
2022/08/06 11:25:50;;;;;;;0.95;0.40;;;21.80;87.60;;;;;;5031496;28;20210;-90
2022/08/06 11:28:40;;;;;;;1.35;0.38;;;21.70;87.30;;;;;;5025065;28;20215;-87
2022/08/06 11:31:07;;;;;;;1.35;0.40;;;21.20;85.60;;;;;;5023435;28;20179;-90
2022/08/06 11:33:33;;;;;;;1.05;0.40;;;21.00;88.10;;;;;;5013438;28;20245;-90
2022/08/06 11:36:03;;;;;;;2.50;0.28;;;21.00;90.10;;;;;;5031055;28;20658;-88
2022/08/06 11:38:52;;;;;;;1.45;0.30;;;21.10;91.60;;;;;;5020851;28;20289;-88
2022/08/06 11:41:25;;;;;;;2.33;0.35;;;21.50;89.80;;;;;;5021137;28;20217;-89
2022/08/06 11:43:53;;;;;;;1.73;0.40;;;22.00;89.90;;;;;;5019741;28;20266;-88
2022/08/06 11:46:28;;;;;;;1.05;0.20;;;22.30;86.40;;;;;;5022761;28;20761;-91
2022/08/06 11:49:00;;;;;;;1.63;0.30;;;22.20;84.80;;;;;;5011430;28;20198;-89
2022/08/06 11:51:45;;;;;;;3.60;0.40;;;21.90;85.90;;;;;;5015345;28;20651;-88
2022/08/06 11:54:12;;;;;;;0.93;0.32;;;21.50;86.30;;;;;;5008315;28;20266;-90
2022/08/06 11:57:09;;;;;;;0.40;0.22;;;21.20;88.20;;;;;;5020821;28;20210;-89
2022/08/06 11:59:44;;;;;;;0.47;0.32;;;20.90;87.00;;;;;;5015332;28;20191;-92
2022/08/06 12:02:12;;;;;;;0.93;0.40;;;20.70;88.80;;;;;;5020522;28;20187;-88
2022/08/06 12:04:39;;;;;;;1.20;0.30;;;20.70;87.60;;;;;;5009758;28;20714;-89
2022/08/06 12:07:28;;;;;;;0.95;0.40;;;21.00;87.50;;;;;;5011692;28;20227;-89
2022/08/06 12:10:02;;;;;;;1.38;0.40;;;21.40;85.00;;;;;;5023013;28;20635;-89
2022/08/06 12:12:30;;;;;;;1.20;0.30;;;21.30;84.80;;;;;;5021998;28;20221;-89
2022/08/06 12:15:12;;;;;;;0.45;0.30;;;21.30;86.40;;;;;;5020174;28;20218;-89
2022/08/06 12:17:57;;;;;;;2.05;0.35;;;21.10;86.00;;;;;;5022219;28;20211;-88
2022/08/06 12:20:43;;;;;;;0.85;0.30;;;20.90;87.00;;;;;;4998673;28;20183;-89
2022/08/06 12:23:14;;;;;;;0.73;0.32;;;20.70;86.40;;;;;;5008531;28;20243;-89
2022/08/06 12:25:45;;;;;;;1.00;0.40;;;20.60;90.40;;;;;;5014913;28;20206;-87
2022/08/06 12:28:13;;;;;;;1.85;0.60;;;20.50;90.30;;;;;;5017129;28;20210;-90
2022/08/06 12:30:54;;;;;;;1.33;0.60;;;20.40;87.20;;;;;;5018798;28;20277;-90
2022/08/06 12:33:22;;;;;;;1.77;0.30;;;20.30;88.80;;;;;;5012187;28;20218;-90
2022/08/06 12:35:51;;;;;;;1.75;0.28;;;20.30;88.90;;;;;;5017011;28;20265;-90
2022/08/06 12:38:18;;;;;;;4.00;0.35;;;20.10;88.60;;;;;;5025237;28;20715;-92
2022/08/06 12:40:58;;;;;;;3.60;0.52;;;20.10;90.20;;;;;;5031832;28;20182;-91
2022/08/06 12:43:25;;;;;;;0.70;0.40;;;20.00;91.60;;;;;;5014477;28;20554;-89
2022/08/06 12:46:06;;;;;;;1.55;0.50;;;20.30;88.70;;;;;;5011103;28;20203;-91
2022/08/06 12:48:36;;;;;;;1.80;0.40;;;20.70;85.30;;;;;;5022049;28;20186;-89
2022/08/06 12:51:08;;;;;;;0.22;0.22;;;21.00;81.70;;;;;;5029109;28;20268;-87
2022/08/06 12:53:43;;;;;;;0.50;0.30;;;21.20;81.10;;;;;;5017984;28;20180;-88
2022/08/06 12:56:11;;;;;;;0.55;0.22;;;21.40;85.00;;;;;;5010587;28;20245;-91
2022/08/06 12:58:39;;;;;;;1.73;0.43;;;21.90;86.30;;;;;;5010086;28;20273;-89
2022/08/06 13:01:07;;;;;;;2.45;0.50;;;22.30;86.10;;;;;;5018491;28;20189;-88
2022/08/06 13:03:36;;;;;;;4.18;1.10;;;22.60;83.80;;;;;;5019836;28;20179;-90
2022/08/06 13:06:05;;;;;;;2.55;0.40;;;22.80;84.40;;;;;;5010603;28;20209;-89
2022/08/06 13:08:31;;;;;;;0.60;0.30;;;23.10;87.70;;;;;;5019817;28;20179;-88
2022/08/06 13:10:57;;;;;;;1.00;0.20;;;23.40;85.20;;;;;;5024670;28;20210;-88
2022/08/06 13:13:47;;;;;;;0.68;0.30;;;23.60;84.90;;;;;;5018234;28;20184;-88
2022/08/06 13:16:14;;;;;;;0.63;0.30;;;23.80;82.80;;;;;;4998075;28;20189;-88
2022/08/06 13:18:42;;;;;;;1.10;0.30;;;23.90;78.30;;;;;;5019640;28;20178;-88